sensor_id;sensor_type;location;lat;lon;timestamp;temperature;humidity
9808;DHT22;4943;52.550;13.462;2022-09-09T00:00:47;18.10;99.90
9808;DHT22;4943;52.550;13.462;2022-09-09T00:03:18;18.10;99.90
9808;DHT22;4943;52.550;13.462;2022-09-09T00:05:57;18.10;99.90
9808;DHT22;4943;52.550;13.462;2022-09-09T00:08:34;18.10;99.90
9808;DHT22;4943;52.550;13.462;2022-09-09T00:11:09;18.10;99.90
9808;DHT22;4943;52.550;13.462;2022-09-09T00:13:46;18.00;99.90
9808;DHT22;4943;52.550;13.462;2022-09-09T00:16:19;18.00;99.90
9808;DHT22;4943;52.550;13.462;2022-09-09T00:18:56;18.00;99.90
9808;DHT22;4943;52.550;13.462;2022-09-09T00:21:32;18.10;99.90
9808;DHT22;4943;52.550;13.462;2022-09-09T00:24:04;18.00;99.90
9808;DHT22;4943;52.550;13.462;2022-09-09T00:26:40;18.00;99.90
9808;DHT22;4943;52.550;13.462;2022-09-09T00:29:17;18.00;99.90
9808;DHT22;4943;52.550;13.462;2022-09-09T00:31:48;17.90;99.90
9808;DHT22;4943;52.550;13.462;2022-09-09T00:34:18;17.90;99.90
9808;DHT22;4943;52.550;13.462;2022-09-09T00:36:49;17.90;99.90
9808;DHT22;4943;52.550;13.462;2022-09-09T00:39:23;17.90;99.90
9808;DHT22;4943;52.550;13.462;2022-09-09T00:42:04;17.90;99.90
9808;DHT22;4943;52.550;13.462;2022-09-09T00:44:38;17.90;99.90
9808;DHT22;4943;52.550;13.462;2022-09-09T00:47:21;17.90;99.90
9808;DHT22;4943;52.550;13.462;2022-09-09T00:50:00;17.80;99.90
9808;DHT22;4943;52.550;13.462;2022-09-09T00:52:36;17.80;99.90
9808;DHT22;4943;52.550;13.462;2022-09-09T00:55:15;17.90;99.90
9808;DHT22;4943;52.550;13.462;2022-09-09T00:57:46;17.80;99.90
9808;DHT22;4943;52.550;13.462;2022-09-09T01:00:20;17.80;99.90
9808;DHT22;4943;52.550;13.462;2022-09-09T01:03:08;17.80;99.90
9808;DHT22;4943;52.550;13.462;2022-09-09T01:05:45;17.80;99.90
9808;DHT22;4943;52.550;13.462;2022-09-09T01:08:25;17.80;99.90
9808;DHT22;4943;52.550;13.462;2022-09-09T01:10:57;17.70;99.90
9808;DHT22;4943;52.550;13.462;2022-09-09T01:13:28;17.70;99.90
9808;DHT22;4943;52.550;13.462;2022-09-09T01:15:59;17.70;99.90
9808;DHT22;4943;52.550;13.462;2022-09-09T01:18:33;17.70;99.90
9808;DHT22;4943;52.550;13.462;2022-09-09T01:21:09;17.70;99.90
9808;DHT22;4943;52.550;13.462;2022-09-09T01:23:57;17.70;99.90
9808;DHT22;4943;52.550;13.462;2022-09-09T01:26:34;17.70;99.90
9808;DHT22;4943;52.550;13.462;2022-09-09T01:29:07;17.70;99.90
9808;DHT22;4943;52.550;13.462;2022-09-09T01:31:38;17.70;99.90
9808;DHT22;4943;52.550;13.462;2022-09-09T01:34:11;17.60;99.90
9808;DHT22;4943;52.550;13.462;2022-09-09T01:36:43;17.60;99.90
9808;DHT22;4943;52.550;13.462;2022-09-09T01:39:12;17.60;99.90
9808;DHT22;4943;52.550;13.462;2022-09-09T01:41:42;17.60;99.90
9808;DHT22;4943;52.550;13.462;2022-09-09T01:44:11;17.60;99.90
9808;DHT22;4943;52.550;13.462;2022-09-09T01:46:39;17.60;99.90
9808;DHT22;4943;52.550;13.462;2022-09-09T01:49:08;17.50;99.90
9808;DHT22;4943;52.550;13.462;2022-09-09T01:51:38;17.50;99.90
9808;DHT22;4943;52.550;13.462;2022-09-09T01:54:07;17.50;99.90
9808;DHT22;4943;52.550;13.462;2022-09-09T01:56:43;17.50;99.90
9808;DHT22;4943;52.550;13.462;2022-09-09T01:59:28;17.50;99.90
9808;DHT22;4943;52.550;13.462;2022-09-09T02:02:09;17.50;99.90
9808;DHT22;4943;52.550;13.462;2022-09-09T02:04:39;17.40;99.90
9808;DHT22;4943;52.550;13.462;2022-09-09T02:07:19;17.40;99.90
9808;DHT22;4943;52.550;13.462;2022-09-09T02:09:57;17.40;99.90
9808;DHT22;4943;52.550;13.462;2022-09-09T02:12:29;17.40;99.90
9808;DHT22;4943;52.550;13.462;2022-09-09T02:15:03;17.40;99.90
9808;DHT22;4943;52.550;13.462;2022-09-09T02:17:34;17.40;99.90
9808;DHT22;4943;52.550;13.462;2022-09-09T02:20:06;17.40;99.90
9808;DHT22;4943;52.550;13.462;2022-09-09T02:22:37;17.40;99.90
9808;DHT22;4943;52.550;13.462;2022-09-09T02:25:09;17.40;99.90
9808;DHT22;4943;52.550;13.462;2022-09-09T02:27:40;17.40;99.90
9808;DHT22;4943;52.550;13.462;2022-09-09T02:30:10;17.40;99.90
9808;DHT22;4943;52.550;13.462;2022-09-09T02:32:39;17.30;99.90
9808;DHT22;4943;52.550;13.462;2022-09-09T02:35:13;17.30;99.90
9808;DHT22;4943;52.550;13.462;2022-09-09T02:37:43;17.30;99.90
9808;DHT22;4943;52.550;13.462;2022-09-09T02:40:14;17.30;99.90
9808;DHT22;4943;52.550;13.462;2022-09-09T02:42:46;17.30;99.90
9808;DHT22;4943;52.550;13.462;2022-09-09T02:45:16;17.30;99.90
9808;DHT22;4943;52.550;13.462;2022-09-09T02:47:50;17.30;99.90
9808;DHT22;4943;52.550;13.462;2022-09-09T02:50:24;17.30;99.90
9808;DHT22;4943;52.550;13.462;2022-09-09T02:53:02;17.30;99.90
9808;DHT22;4943;52.550;13.462;2022-09-09T02:55:38;17.30;99.90
9808;DHT22;4943;52.550;13.462;2022-09-09T02:58:12;17.30;99.90
9808;DHT22;4943;52.550;13.462;2022-09-09T03:00:45;17.30;99.90
9808;DHT22;4943;52.550;13.462;2022-09-09T03:03:14;17.20;99.90
9808;DHT22;4943;52.550;13.462;2022-09-09T03:05:43;17.20;99.90
9808;DHT22;4943;52.550;13.462;2022-09-09T03:08:12;17.30;99.90
9808;DHT22;4943;52.550;13.462;2022-09-09T03:10:41;17.20;99.90
9808;DHT22;4943;52.550;13.462;2022-09-09T03:13:10;17.30;99.90
9808;DHT22;4943;52.550;13.462;2022-09-09T03:15:42;17.20;99.90
9808;DHT22;4943;52.550;13.462;2022-09-09T03:18:10;17.20;99.90
9808;DHT22;4943;52.550;13.462;2022-09-09T03:20:38;17.20;99.90
9808;DHT22;4943;52.550;13.462;2022-09-09T03:23:08;17.20;99.90
9808;DHT22;4943;52.550;13.462;2022-09-09T03:25:46;17.20;99.90
9808;DHT22;4943;52.550;13.462;2022-09-09T03:28:16;17.20;99.90
9808;DHT22;4943;52.550;13.462;2022-09-09T03:30:44;17.20;99.90
9808;DHT22;4943;52.550;13.462;2022-09-09T03:33:12;17.20;99.90
9808;DHT22;4943;52.550;13.462;2022-09-09T03:35:45;17.20;99.90
9808;DHT22;4943;52.550;13.462;2022-09-09T03:38:15;17.10;99.90
9808;DHT22;4943;52.550;13.462;2022-09-09T03:40:49;17.10;99.90
9808;DHT22;4943;52.550;13.462;2022-09-09T03:43:19;17.20;99.90
9808;DHT22;4943;52.550;13.462;2022-09-09T03:45:48;17.10;99.90
9808;DHT22;4943;52.550;13.462;2022-09-09T03:48:17;17.10;99.90
9808;DHT22;4943;52.550;13.462;2022-09-09T03:50:46;17.00;99.90
9808;DHT22;4943;52.550;13.462;2022-09-09T03:53:15;17.00;99.90
9808;DHT22;4943;52.550;13.462;2022-09-09T03:55:45;17.00;99.90
9808;DHT22;4943;52.550;13.462;2022-09-09T03:58:13;17.00;99.90
9808;DHT22;4943;52.550;13.462;2022-09-09T04:00:42;17.00;99.90
9808;DHT22;4943;52.550;13.462;2022-09-09T04:03:12;17.00;99.90
9808;DHT22;4943;52.550;13.462;2022-09-09T04:05:40;17.00;99.90
9808;DHT22;4943;52.550;13.462;2022-09-09T04:08:09;17.00;99.90
9808;DHT22;4943;52.550;13.462;2022-09-09T04:10:38;17.00;99.90
9808;DHT22;4943;52.550;13.462;2022-09-09T04:13:06;17.00;99.90
9808;DHT22;4943;52.550;13.462;2022-09-09T04:15:34;17.00;99.90
9808;DHT22;4943;52.550;13.462;2022-09-09T04:18:04;17.00;99.90
9808;DHT22;4943;52.550;13.462;2022-09-09T04:20:33;17.00;99.90
9808;DHT22;4943;52.550;13.462;2022-09-09T04:23:01;17.00;99.90
9808;DHT22;4943;52.550;13.462;2022-09-09T04:25:30;17.00;99.90
9808;DHT22;4943;52.550;13.462;2022-09-09T04:27:58;17.00;99.90
9808;DHT22;4943;52.550;13.462;2022-09-09T04:30:26;17.00;99.90
9808;DHT22;4943;52.550;13.462;2022-09-09T04:32:56;17.00;99.90
9808;DHT22;4943;52.550;13.462;2022-09-09T04:35:25;17.00;99.90
9808;DHT22;4943;52.550;13.462;2022-09-09T04:37:53;17.00;99.90
9808;DHT22;4943;52.550;13.462;2022-09-09T04:40:21;17.00;99.90
9808;DHT22;4943;52.550;13.462;2022-09-09T04:42:50;17.00;99.90
9808;DHT22;4943;52.550;13.462;2022-09-09T04:45:18;17.00;99.90
9808;DHT22;4943;52.550;13.462;2022-09-09T04:47:46;17.00;99.90
9808;DHT22;4943;52.550;13.462;2022-09-09T04:50:14;17.00;99.90
9808;DHT22;4943;52.550;13.462;2022-09-09T04:52:44;17.00;99.90
9808;DHT22;4943;52.550;13.462;2022-09-09T04:55:13;17.00;99.90
9808;DHT22;4943;52.550;13.462;2022-09-09T04:57:41;17.00;99.90
9808;DHT22;4943;52.550;13.462;2022-09-09T05:00:10;17.00;99.90
9808;DHT22;4943;52.550;13.462;2022-09-09T05:02:40;17.00;99.90
9808;DHT22;4943;52.550;13.462;2022-09-09T05:05:09;17.10;99.90
9808;DHT22;4943;52.550;13.462;2022-09-09T05:07:37;17.10;99.90
9808;DHT22;4943;52.550;13.462;2022-09-09T05:10:07;17.10;99.90
9808;DHT22;4943;52.550;13.462;2022-09-09T05:12:36;17.10;99.90
9808;DHT22;4943;52.550;13.462;2022-09-09T05:15:05;17.20;99.90
9808;DHT22;4943;52.550;13.462;2022-09-09T05:17:33;17.20;99.90
9808;DHT22;4943;52.550;13.462;2022-09-09T05:20:02;17.30;99.90
9808;DHT22;4943;52.550;13.462;2022-09-09T05:22:35;17.30;99.90
9808;DHT22;4943;52.550;13.462;2022-09-09T05:25:04;17.30;99.90
9808;DHT22;4943;52.550;13.462;2022-09-09T05:27:35;17.40;99.90
9808;DHT22;4943;52.550;13.462;2022-09-09T05:30:03;17.40;99.90
9808;DHT22;4943;52.550;13.462;2022-09-09T05:32:32;17.50;99.90
9808;DHT22;4943;52.550;13.462;2022-09-09T05:35:00;17.50;99.90
9808;DHT22;4943;52.550;13.462;2022-09-09T05:37:30;17.50;99.90
9808;DHT22;4943;52.550;13.462;2022-09-09T05:39:58;17.60;99.90
9808;DHT22;4943;52.550;13.462;2022-09-09T05:42:30;17.60;99.90
9808;DHT22;4943;52.550;13.462;2022-09-09T05:45:00;17.70;99.90
9808;DHT22;4943;52.550;13.462;2022-09-09T05:47:28;17.80;99.90
9808;DHT22;4943;52.550;13.462;2022-09-09T05:49:56;17.80;99.90
9808;DHT22;4943;52.550;13.462;2022-09-09T05:52:25;17.80;99.90
9808;DHT22;4943;52.550;13.462;2022-09-09T05:54:54;17.90;99.90
9808;DHT22;4943;52.550;13.462;2022-09-09T05:57:23;17.90;99.90
9808;DHT22;4943;52.550;13.462;2022-09-09T05:59:51;17.90;99.90
9808;DHT22;4943;52.550;13.462;2022-09-09T06:02:21;17.90;99.90
9808;DHT22;4943;52.550;13.462;2022-09-09T06:04:50;17.90;99.90
9808;DHT22;4943;52.550;13.462;2022-09-09T06:07:18;18.00;99.90
9808;DHT22;4943;52.550;13.462;2022-09-09T06:09:46;18.00;99.90
9808;DHT22;4943;52.550;13.462;2022-09-09T06:12:15;18.00;99.90
9808;DHT22;4943;52.550;13.462;2022-09-09T06:14:43;18.00;99.90
9808;DHT22;4943;52.550;13.462;2022-09-09T06:17:12;18.10;99.90
9808;DHT22;4943;52.550;13.462;2022-09-09T06:19:41;18.10;99.90
9808;DHT22;4943;52.550;13.462;2022-09-09T06:22:09;18.10;99.90
9808;DHT22;4943;52.550;13.462;2022-09-09T06:24:38;18.10;99.90
9808;DHT22;4943;52.550;13.462;2022-09-09T06:27:06;18.20;99.90
9808;DHT22;4943;52.550;13.462;2022-09-09T06:29:34;18.20;99.90
9808;DHT22;4943;52.550;13.462;2022-09-09T06:32:03;18.30;99.90
9808;DHT22;4943;52.550;13.462;2022-09-09T06:34:31;18.30;99.90
9808;DHT22;4943;52.550;13.462;2022-09-09T06:37:00;18.40;99.90
9808;DHT22;4943;52.550;13.462;2022-09-09T06:39:28;18.40;99.90
9808;DHT22;4943;52.550;13.462;2022-09-09T06:41:57;18.40;99.90
9808;DHT22;4943;52.550;13.462;2022-09-09T06:44:25;18.50;99.90
9808;DHT22;4943;52.550;13.462;2022-09-09T06:47:00;18.50;99.90
9808;DHT22;4943;52.550;13.462;2022-09-09T06:49:28;18.50;99.90
9808;DHT22;4943;52.550;13.462;2022-09-09T06:51:56;18.60;99.90
9808;DHT22;4943;52.550;13.462;2022-09-09T06:54:26;18.50;99.90
9808;DHT22;4943;52.550;13.462;2022-09-09T06:56:54;18.60;99.90
9808;DHT22;4943;52.550;13.462;2022-09-09T06:59:22;18.50;99.90
9808;DHT22;4943;52.550;13.462;2022-09-09T07:01:50;18.60;99.90
9808;DHT22;4943;52.550;13.462;2022-09-09T07:04:22;18.50;99.90
9808;DHT22;4943;52.550;13.462;2022-09-09T07:06:50;18.60;99.90
9808;DHT22;4943;52.550;13.462;2022-09-09T07:09:20;18.70;99.90
9808;DHT22;4943;52.550;13.462;2022-09-09T07:11:51;18.80;99.90
9808;DHT22;4943;52.550;13.462;2022-09-09T07:14:19;18.90;99.90
9808;DHT22;4943;52.550;13.462;2022-09-09T07:16:48;18.90;99.90
9808;DHT22;4943;52.550;13.462;2022-09-09T07:19:16;19.00;99.90
9808;DHT22;4943;52.550;13.462;2022-09-09T07:21:44;19.10;99.90
9808;DHT22;4943;52.550;13.462;2022-09-09T07:24:13;19.10;99.90
9808;DHT22;4943;52.550;13.462;2022-09-09T07:26:42;19.10;99.90
9808;DHT22;4943;52.550;13.462;2022-09-09T07:29:12;19.20;99.90
9808;DHT22;4943;52.550;13.462;2022-09-09T07:31:46;19.30;99.90
9808;DHT22;4943;52.550;13.462;2022-09-09T07:34:15;19.40;99.90
9808;DHT22;4943;52.550;13.462;2022-09-09T07:36:43;19.40;99.90
9808;DHT22;4943;52.550;13.462;2022-09-09T07:39:13;19.50;99.90
9808;DHT22;4943;52.550;13.462;2022-09-09T07:41:43;19.50;99.90
9808;DHT22;4943;52.550;13.462;2022-09-09T07:44:15;19.60;99.90
9808;DHT22;4943;52.550;13.462;2022-09-09T07:46:44;19.70;99.90
9808;DHT22;4943;52.550;13.462;2022-09-09T07:49:13;19.80;99.90
9808;DHT22;4943;52.550;13.462;2022-09-09T07:51:43;19.90;99.90
9808;DHT22;4943;52.550;13.462;2022-09-09T07:54:13;20.00;99.90
9808;DHT22;4943;52.550;13.462;2022-09-09T07:56:42;20.10;99.90
9808;DHT22;4943;52.550;13.462;2022-09-09T07:59:10;20.20;99.90
9808;DHT22;4943;52.550;13.462;2022-09-09T08:01:41;20.40;99.90
9808;DHT22;4943;52.550;13.462;2022-09-09T08:04:12;20.50;99.90
9808;DHT22;4943;52.550;13.462;2022-09-09T08:06:43;20.60;99.90
9808;DHT22;4943;52.550;13.462;2022-09-09T08:09:13;20.80;99.90
9808;DHT22;4943;52.550;13.462;2022-09-09T08:11:42;20.80;99.90
9808;DHT22;4943;52.550;13.462;2022-09-09T08:14:11;20.90;99.90
9808;DHT22;4943;52.550;13.462;2022-09-09T08:16:43;20.90;99.90
9808;DHT22;4943;52.550;13.462;2022-09-09T08:19:11;20.90;99.90
9808;DHT22;4943;52.550;13.462;2022-09-09T08:21:43;21.00;99.90
9808;DHT22;4943;52.550;13.462;2022-09-09T08:24:12;20.90;99.90
9808;DHT22;4943;52.550;13.462;2022-09-09T08:26:43;20.90;99.90
9808;DHT22;4943;52.550;13.462;2022-09-09T08:29:13;20.90;99.90
9808;DHT22;4943;52.550;13.462;2022-09-09T08:31:44;20.80;99.90
9808;DHT22;4943;52.550;13.462;2022-09-09T08:34:13;20.80;99.90
9808;DHT22;4943;52.550;13.462;2022-09-09T08:36:43;20.70;99.90
9808;DHT22;4943;52.550;13.462;2022-09-09T08:39:13;20.70;99.90
9808;DHT22;4943;52.550;13.462;2022-09-09T08:41:56;20.60;99.90
9808;DHT22;4943;52.550;13.462;2022-09-09T08:44:39;20.70;99.90
9808;DHT22;4943;52.550;13.462;2022-09-09T08:47:24;20.70;99.90
9808;DHT22;4943;52.550;13.462;2022-09-09T08:50:07;20.70;99.90
9808;DHT22;4943;52.550;13.462;2022-09-09T08:52:49;20.60;99.90
9808;DHT22;4943;52.550;13.462;2022-09-09T08:55:25;20.60;99.90
9808;DHT22;4943;52.550;13.462;2022-09-09T08:57:57;20.60;99.90
9808;DHT22;4943;52.550;13.462;2022-09-09T09:00:33;20.60;99.90
9808;DHT22;4943;52.550;13.462;2022-09-09T09:03:09;20.70;99.90
9808;DHT22;4943;52.550;13.462;2022-09-09T09:05:47;20.70;99.90
9808;DHT22;4943;52.550;13.462;2022-09-09T09:08:26;20.80;99.90
9808;DHT22;4943;52.550;13.462;2022-09-09T09:10:57;20.90;99.90
9808;DHT22;4943;52.550;13.462;2022-09-09T09:13:32;21.10;99.90
9808;DHT22;4943;52.550;13.462;2022-09-09T09:16:17;21.20;99.90
9808;DHT22;4943;52.550;13.462;2022-09-09T09:18:49;21.40;99.90
9808;DHT22;4943;52.550;13.462;2022-09-09T09:21:21;21.60;99.90
9808;DHT22;4943;52.550;13.462;2022-09-09T09:23:57;21.80;99.90
9808;DHT22;4943;52.550;13.462;2022-09-09T09:26:30;22.00;99.90
9808;DHT22;4943;52.550;13.462;2022-09-09T09:29:03;22.30;99.90
9808;DHT22;4943;52.550;13.462;2022-09-09T09:31:36;22.50;99.90
9808;DHT22;4943;52.550;13.462;2022-09-09T09:34:07;22.70;99.90
9808;DHT22;4943;52.550;13.462;2022-09-09T09:36:41;22.90;99.90
9808;DHT22;4943;52.550;13.462;2022-09-09T09:39:22;23.10;99.90
9808;DHT22;4943;52.550;13.462;2022-09-09T09:42:12;23.20;99.90
9808;DHT22;4943;52.550;13.462;2022-09-09T09:44:44;23.30;99.90
9808;DHT22;4943;52.550;13.462;2022-09-09T09:47:15;23.40;99.90
9808;DHT22;4943;52.550;13.462;2022-09-09T09:49:52;23.40;99.90
9808;DHT22;4943;52.550;13.462;2022-09-09T09:52:23;23.40;99.90
9808;DHT22;4943;52.550;13.462;2022-09-09T09:54:53;23.30;99.90
9808;DHT22;4943;52.550;13.462;2022-09-09T09:57:25;23.20;99.90
9808;DHT22;4943;52.550;13.462;2022-09-09T10:00:02;23.10;99.90
9808;DHT22;4943;52.550;13.462;2022-09-09T10:02:38;23.00;99.90
9808;DHT22;4943;52.550;13.462;2022-09-09T10:05:14;22.90;99.90
9808;DHT22;4943;52.550;13.462;2022-09-09T10:07:42;22.80;99.90
9808;DHT22;4943;52.550;13.462;2022-09-09T10:10:16;22.70;99.90
9808;DHT22;4943;52.550;13.462;2022-09-09T10:12:54;22.70;99.90
9808;DHT22;4943;52.550;13.462;2022-09-09T10:15:38;22.70;99.90
9808;DHT22;4943;52.550;13.462;2022-09-09T10:18:23;22.60;99.90
9808;DHT22;4943;52.550;13.462;2022-09-09T10:20:58;22.60;99.90
9808;DHT22;4943;52.550;13.462;2022-09-09T10:23:44;22.50;99.90
9808;DHT22;4943;52.550;13.462;2022-09-09T10:26:26;22.50;99.90
9808;DHT22;4943;52.550;13.462;2022-09-09T10:29:15;22.50;99.90
9808;DHT22;4943;52.550;13.462;2022-09-09T10:31:54;22.50;99.90
9808;DHT22;4943;52.550;13.462;2022-09-09T10:34:50;22.60;99.90
9808;DHT22;4943;52.550;13.462;2022-09-09T10:37:41;22.70;99.90
9808;DHT22;4943;52.550;13.462;2022-09-09T10:40:26;22.70;99.90
9808;DHT22;4943;52.550;13.462;2022-09-09T10:43:03;22.70;99.90
9808;DHT22;4943;52.550;13.462;2022-09-09T10:45:37;22.70;99.90
9808;DHT22;4943;52.550;13.462;2022-09-09T10:48:17;22.70;99.90
9808;DHT22;4943;52.550;13.462;2022-09-09T10:50:53;22.60;99.90
9808;DHT22;4943;52.550;13.462;2022-09-09T10:53:36;22.70;99.90
9808;DHT22;4943;52.550;13.462;2022-09-09T10:56:07;22.80;99.90
9808;DHT22;4943;52.550;13.462;2022-09-09T10:58:40;22.80;99.90
9808;DHT22;4943;52.550;13.462;2022-09-09T11:01:15;22.80;99.90
9808;DHT22;4943;52.550;13.462;2022-09-09T11:03:49;22.80;99.90
9808;DHT22;4943;52.550;13.462;2022-09-09T11:06:22;22.80;99.90
9808;DHT22;4943;52.550;13.462;2022-09-09T11:08:52;22.80;99.90
9808;DHT22;4943;52.550;13.462;2022-09-09T11:11:29;22.90;99.90
9808;DHT22;4943;52.550;13.462;2022-09-09T11:14:01;22.90;99.90
9808;DHT22;4943;52.550;13.462;2022-09-09T11:16:34;23.00;99.90
9808;DHT22;4943;52.550;13.462;2022-09-09T11:19:16;23.00;99.90
9808;DHT22;4943;52.550;13.462;2022-09-09T11:21:49;23.00;99.90
9808;DHT22;4943;52.550;13.462;2022-09-09T11:24:23;23.00;99.90
9808;DHT22;4943;52.550;13.462;2022-09-09T11:26:57;23.10;99.90
9808;DHT22;4943;52.550;13.462;2022-09-09T11:29:45;23.10;99.90
9808;DHT22;4943;52.550;13.462;2022-09-09T11:32:47;23.20;99.90
9808;DHT22;4943;52.550;13.462;2022-09-09T11:35:30;23.40;99.90
9808;DHT22;4943;52.550;13.462;2022-09-09T11:38:18;23.50;99.90
9808;DHT22;4943;52.550;13.462;2022-09-09T11:40:55;23.50;99.90
9808;DHT22;4943;52.550;13.462;2022-09-09T11:43:27;23.60;99.90
9808;DHT22;4943;52.550;13.462;2022-09-09T11:45:58;23.70;99.90
9808;DHT22;4943;52.550;13.462;2022-09-09T11:48:34;23.80;99.90
9808;DHT22;4943;52.550;13.462;2022-09-09T11:51:05;23.90;99.90
9808;DHT22;4943;52.550;13.462;2022-09-09T11:53:48;23.90;99.90
9808;DHT22;4943;52.550;13.462;2022-09-09T11:56:30;23.90;99.90
9808;DHT22;4943;52.550;13.462;2022-09-09T11:59:00;23.80;99.90
9808;DHT22;4943;52.550;13.462;2022-09-09T12:01:35;23.90;99.90
9808;DHT22;4943;52.550;13.462;2022-09-09T12:04:17;23.90;99.90
9808;DHT22;4943;52.550;13.462;2022-09-09T12:06:51;23.90;99.90
9808;DHT22;4943;52.550;13.462;2022-09-09T12:09:25;23.80;99.90
9808;DHT22;4943;52.550;13.462;2022-09-09T12:12:07;23.70;99.90
9808;DHT22;4943;52.550;13.462;2022-09-09T12:14:37;23.80;99.90
9808;DHT22;4943;52.550;13.462;2022-09-09T12:17:15;23.70;99.90
9808;DHT22;4943;52.550;13.462;2022-09-09T12:19:46;23.80;99.90
9808;DHT22;4943;52.550;13.462;2022-09-09T12:22:22;23.80;99.90
9808;DHT22;4943;52.550;13.462;2022-09-09T12:24:59;23.90;99.90
9808;DHT22;4943;52.550;13.462;2022-09-09T12:27:35;24.10;99.90
9808;DHT22;4943;52.550;13.462;2022-09-09T12:30:10;24.30;99.90
9808;DHT22;4943;52.550;13.462;2022-09-09T12:32:39;24.40;99.90
9808;DHT22;4943;52.550;13.462;2022-09-09T12:35:11;24.60;99.90
9808;DHT22;4943;52.550;13.462;2022-09-09T12:37:44;24.60;99.90
9808;DHT22;4943;52.550;13.462;2022-09-09T12:40:20;24.60;99.90
9808;DHT22;4943;52.550;13.462;2022-09-09T12:42:50;24.50;99.90
9808;DHT22;4943;52.550;13.462;2022-09-09T12:45:20;24.50;99.90
9808;DHT22;4943;52.550;13.462;2022-09-09T12:47:52;24.40;99.90
9808;DHT22;4943;52.550;13.462;2022-09-09T12:50:22;24.40;99.90
9808;DHT22;4943;52.550;13.462;2022-09-09T12:52:53;24.30;99.90
9808;DHT22;4943;52.550;13.462;2022-09-09T12:55:25;24.30;99.90
9808;DHT22;4943;52.550;13.462;2022-09-09T12:57:58;24.30;99.90
9808;DHT22;4943;52.550;13.462;2022-09-09T13:00:27;24.30;99.90
9808;DHT22;4943;52.550;13.462;2022-09-09T13:02:58;24.30;99.90
9808;DHT22;4943;52.550;13.462;2022-09-09T13:05:28;24.30;99.90
9808;DHT22;4943;52.550;13.462;2022-09-09T13:08:02;24.30;99.90
9808;DHT22;4943;52.550;13.462;2022-09-09T13:10:33;24.30;99.90
9808;DHT22;4943;52.550;13.462;2022-09-09T13:13:25;24.30;99.90
9808;DHT22;4943;52.550;13.462;2022-09-09T13:15:56;24.30;99.90
9808;DHT22;4943;52.550;13.462;2022-09-09T13:18:28;24.40;99.90
9808;DHT22;4943;52.550;13.462;2022-09-09T13:20:56;24.50;99.90
9808;DHT22;4943;52.550;13.462;2022-09-09T13:23:27;24.50;99.90
9808;DHT22;4943;52.550;13.462;2022-09-09T13:25:57;24.60;99.90
9808;DHT22;4943;52.550;13.462;2022-09-09T13:28:28;24.70;99.90
9808;DHT22;4943;52.550;13.462;2022-09-09T13:31:00;24.80;99.90
9808;DHT22;4943;52.550;13.462;2022-09-09T13:33:32;24.80;99.90
9808;DHT22;4943;52.550;13.462;2022-09-09T13:36:03;24.80;99.90
9808;DHT22;4943;52.550;13.462;2022-09-09T13:38:33;24.80;99.90
9808;DHT22;4943;52.550;13.462;2022-09-09T13:41:04;24.70;99.90
9808;DHT22;4943;52.550;13.462;2022-09-09T13:43:37;24.80;99.90
9808;DHT22;4943;52.550;13.462;2022-09-09T13:46:25;24.80;99.90
9808;DHT22;4943;52.550;13.462;2022-09-09T13:48:55;24.90;99.90
9808;DHT22;4943;52.550;13.462;2022-09-09T13:51:35;24.90;99.90
9808;DHT22;4943;52.550;13.462;2022-09-09T13:54:05;25.00;99.90
9808;DHT22;4943;52.550;13.462;2022-09-09T13:56:34;25.10;99.90
9808;DHT22;4943;52.550;13.462;2022-09-09T13:59:06;25.20;99.90
9808;DHT22;4943;52.550;13.462;2022-09-09T14:01:36;25.40;99.90
9808;DHT22;4943;52.550;13.462;2022-09-09T14:04:05;25.60;99.90
9808;DHT22;4943;52.550;13.462;2022-09-09T14:06:34;25.80;99.90
9808;DHT22;4943;52.550;13.462;2022-09-09T14:09:04;25.90;99.90
9808;DHT22;4943;52.550;13.462;2022-09-09T14:11:32;26.00;99.90
9808;DHT22;4943;52.550;13.462;2022-09-09T14:14:00;25.90;99.90
9808;DHT22;4943;52.550;13.462;2022-09-09T14:16:29;25.90;99.90
9808;DHT22;4943;52.550;13.462;2022-09-09T14:18:57;25.80;99.90
9808;DHT22;4943;52.550;13.462;2022-09-09T14:21:27;25.70;99.90
9808;DHT22;4943;52.550;13.462;2022-09-09T14:23:55;25.70;99.90
9808;DHT22;4943;52.550;13.462;2022-09-09T14:26:25;25.70;99.90
9808;DHT22;4943;52.550;13.462;2022-09-09T14:28:53;25.80;99.90
9808;DHT22;4943;52.550;13.462;2022-09-09T14:31:22;25.80;99.90
9808;DHT22;4943;52.550;13.462;2022-09-09T14:33:52;25.90;99.90
9808;DHT22;4943;52.550;13.462;2022-09-09T14:36:20;25.90;99.90
9808;DHT22;4943;52.550;13.462;2022-09-09T14:38:49;26.00;99.90
9808;DHT22;4943;52.550;13.462;2022-09-09T14:41:19;26.00;99.90
9808;DHT22;4943;52.550;13.462;2022-09-09T14:43:49;26.00;99.90
9808;DHT22;4943;52.550;13.462;2022-09-09T14:46:19;26.00;99.90
9808;DHT22;4943;52.550;13.462;2022-09-09T14:48:48;26.10;99.90
9808;DHT22;4943;52.550;13.462;2022-09-09T14:51:19;26.10;99.90
9808;DHT22;4943;52.550;13.462;2022-09-09T14:53:51;25.90;99.90
9808;DHT22;4943;52.550;13.462;2022-09-09T14:56:22;25.90;99.90
9808;DHT22;4943;52.550;13.462;2022-09-09T14:58:53;25.80;99.90
9808;DHT22;4943;52.550;13.462;2022-09-09T15:01:22;25.80;99.90
9808;DHT22;4943;52.550;13.462;2022-09-09T15:03:52;25.70;99.90
9808;DHT22;4943;52.550;13.462;2022-09-09T15:06:23;25.60;99.90
9808;DHT22;4943;52.550;13.462;2022-09-09T15:08:53;25.40;99.90
9808;DHT22;4943;52.550;13.462;2022-09-09T15:11:26;25.40;99.90
9808;DHT22;4943;52.550;13.462;2022-09-09T15:13:55;25.30;99.90
9808;DHT22;4943;52.550;13.462;2022-09-09T15:16:25;25.30;99.90
9808;DHT22;4943;52.550;13.462;2022-09-09T15:18:56;25.30;99.90
9808;DHT22;4943;52.550;13.462;2022-09-09T15:21:27;25.20;99.90
9808;DHT22;4943;52.550;13.462;2022-09-09T15:23:56;25.20;99.90
9808;DHT22;4943;52.550;13.462;2022-09-09T15:26:25;25.20;99.90
9808;DHT22;4943;52.550;13.462;2022-09-09T15:28:54;25.20;99.90
9808;DHT22;4943;52.550;13.462;2022-09-09T15:31:23;25.30;99.90
9808;DHT22;4943;52.550;13.462;2022-09-09T15:33:53;25.50;99.90
9808;DHT22;4943;52.550;13.462;2022-09-09T15:36:30;25.70;99.90
9808;DHT22;4943;52.550;13.462;2022-09-09T15:38:59;25.90;99.90
9808;DHT22;4943;52.550;13.462;2022-09-09T15:41:28;26.00;99.90
9808;DHT22;4943;52.550;13.462;2022-09-09T15:43:56;26.10;99.90
9808;DHT22;4943;52.550;13.462;2022-09-09T15:46:28;26.00;99.90
9808;DHT22;4943;52.550;13.462;2022-09-09T15:48:58;25.90;99.90
9808;DHT22;4943;52.550;13.462;2022-09-09T15:51:32;25.90;99.90
9808;DHT22;4943;52.550;13.462;2022-09-09T15:54:09;25.80;99.90
9808;DHT22;4943;52.550;13.462;2022-09-09T15:56:39;25.70;99.90
9808;DHT22;4943;52.550;13.462;2022-09-09T15:59:08;25.50;99.90
9808;DHT22;4943;52.550;13.462;2022-09-09T16:01:37;25.40;99.90
9808;DHT22;4943;52.550;13.462;2022-09-09T16:04:06;25.40;99.90
9808;DHT22;4943;52.550;13.462;2022-09-09T16:06:35;25.20;99.90
9808;DHT22;4943;52.550;13.462;2022-09-09T16:09:05;25.20;99.90
9808;DHT22;4943;52.550;13.462;2022-09-09T16:11:36;25.20;99.90
9808;DHT22;4943;52.550;13.462;2022-09-09T16:14:04;25.20;99.90
9808;DHT22;4943;52.550;13.462;2022-09-09T16:16:34;25.10;99.90